createdAt,value
2018-08-03T19:30:37.442Z,12.70
2018-08-03T19:33:05.209Z,9.30
2018-08-03T19:35:32.973Z,8.70
2018-08-03T19:38:00.710Z,9.93
2018-08-03T19:40:28.470Z,9.93
2018-08-03T19:42:56.258Z,9.93
2018-08-03T19:45:24.193Z,6.17
2018-08-03T19:47:52.152Z,7.80
2018-08-03T19:50:19.935Z,6.80
2018-08-03T19:52:47.723Z,6.73
2018-08-03T19:55:15.571Z,6.00
2018-08-03T19:57:43.412Z,7.07
2018-08-03T20:00:12.659Z,5.37
2018-08-03T20:02:40.451Z,6.57
2018-08-03T20:05:08.921Z,6.17
2018-08-03T20:07:36.758Z,8.87
2018-08-03T20:10:05.036Z,6.77
2018-08-03T20:12:32.898Z,6.60
2018-08-03T20:15:00.675Z,6.67
2018-08-03T20:17:28.459Z,6.97
2018-08-03T20:19:56.283Z,8.20
2018-08-03T20:22:24.061Z,7.90
2018-08-03T20:24:51.863Z,12.90
2018-08-03T20:27:19.692Z,15.07
2018-08-03T20:29:47.478Z,14.90
2018-08-03T20:32:15.331Z,11.83
2018-08-03T20:34:43.161Z,10.30
2018-08-03T20:37:11.104Z,7.43
2018-08-03T20:39:38.922Z,7.23
2018-08-03T20:42:06.754Z,7.07
2018-08-03T20:44:34.574Z,6.27
2018-08-03T20:47:02.413Z,7.00
2018-08-03T20:49:30.195Z,6.87
2018-08-03T20:51:57.950Z,6.50
2018-08-03T20:54:25.786Z,7.07
2018-08-03T20:56:53.534Z,6.83
2018-08-03T20:59:21.371Z,7.07
2018-08-03T21:01:49.123Z,6.53
2018-08-03T21:04:16.966Z,6.70
2018-08-03T21:06:44.798Z,9.23
2018-08-03T21:09:12.910Z,7.50
2018-08-03T21:11:40.967Z,7.63
2018-08-03T21:14:08.929Z,7.13
2018-08-03T21:16:37.284Z,7.70
2018-08-03T21:19:05.141Z,6.67
2018-08-03T21:21:33.514Z,7.37
2018-08-03T21:24:01.243Z,8.40
2018-08-03T21:26:29.098Z,7.60
2018-08-03T21:28:56.951Z,7.73
2018-08-03T21:31:24.788Z,7.20
2018-08-03T21:33:52.477Z,7.27
2018-08-03T21:36:20.254Z,7.93
2018-08-03T21:38:48.054Z,7.83
2018-08-03T21:41:15.882Z,7.50
2018-08-03T21:43:43.657Z,7.63
2018-08-03T21:46:11.429Z,7.27
2018-08-03T21:48:39.411Z,6.80
2018-08-03T21:51:07.394Z,9.07
2018-08-03T21:53:35.139Z,7.93
2018-08-03T21:56:03.052Z,7.27
2018-08-03T21:58:30.881Z,8.10
2018-08-03T22:00:58.890Z,7.00
2018-08-03T22:03:26.678Z,6.57
2018-08-03T22:05:54.533Z,7.13
2018-08-03T22:08:22.402Z,6.70
2018-08-03T22:10:50.286Z,6.80
2018-08-03T22:13:18.151Z,6.37
2018-08-03T22:15:45.995Z,6.83
2018-08-03T22:18:13.801Z,7.33
2018-08-03T22:20:41.626Z,7.17
2018-08-03T22:23:09.437Z,7.57
2018-08-03T22:25:37.410Z,7.30
2018-08-03T22:28:05.270Z,6.90
2018-08-03T22:30:33.058Z,8.07
2018-08-03T22:33:00.932Z,7.80
2018-08-03T22:35:28.707Z,7.70
2018-08-03T22:37:56.518Z,7.13
2018-08-03T22:40:24.462Z,7.27
2018-08-03T22:42:52.304Z,6.63
2018-08-03T22:45:20.169Z,7.93
2018-08-03T22:47:47.973Z,7.70
2018-08-03T22:50:15.770Z,8.00
2018-08-03T22:52:43.591Z,7.50
2018-08-03T22:55:11.355Z,7.53
2018-08-03T22:57:39.121Z,7.50
2018-08-03T23:00:07.484Z,8.30
2018-08-03T23:02:35.335Z,6.53
2018-08-03T23:05:03.244Z,6.67
2018-08-03T23:07:31.162Z,7.30
2018-08-03T23:09:59.022Z,8.03
2018-08-03T23:12:26.838Z,7.57
2018-08-03T23:14:54.750Z,7.20
2018-08-03T23:17:22.564Z,8.10
2018-08-03T23:19:50.406Z,7.90
2018-08-03T23:22:18.170Z,7.60
2018-08-03T23:24:45.955Z,8.33
2018-08-03T23:27:13.779Z,7.70
2018-08-03T23:29:41.566Z,8.33
2018-08-03T23:32:09.412Z,9.03
2018-08-03T23:34:37.146Z,9.43
2018-08-03T23:37:04.961Z,8.30
2018-08-03T23:39:32.736Z,8.47
2018-08-03T23:42:00.555Z,8.00
2018-08-03T23:44:28.357Z,8.63
2018-08-03T23:46:56.218Z,8.87
2018-08-03T23:49:23.968Z,8.40
2018-08-03T23:51:51.799Z,8.50
2018-08-03T23:54:19.588Z,9.60
2018-08-03T23:56:47.489Z,7.67
2018-08-03T23:59:15.123Z,9.73
